createdAt,value
2022-09-17T00:01:33.175Z,10.66
2022-09-17T00:04:02.201Z,10.63
2022-09-17T00:06:29.157Z,10.38
2022-09-17T00:08:55.913Z,10.49
2022-09-17T00:11:26.036Z,10.70
2022-09-17T00:13:54.009Z,10.62
2022-09-17T00:16:39.766Z,10.51
2022-09-17T00:19:09.232Z,10.54
2022-09-17T00:21:36.177Z,10.56
2022-09-17T00:24:04.939Z,10.48
2022-09-17T00:26:33.080Z,10.53
2022-09-17T00:29:00.404Z,10.46
2022-09-17T00:31:28.924Z,10.51
2022-09-17T00:33:55.761Z,10.66
2022-09-17T00:36:23.157Z,10.72
2022-09-17T00:38:58.434Z,10.78
2022-09-17T00:41:28.914Z,10.71
2022-09-17T00:43:58.756Z,10.77
2022-09-17T00:46:32.194Z,10.62
2022-09-17T00:49:06.343Z,10.72
2022-09-17T00:51:36.408Z,10.78
2022-09-17T00:54:04.567Z,10.55
2022-09-17T00:56:34.351Z,10.54
2022-09-17T00:59:02.256Z,10.48
2022-09-17T01:01:29.608Z,10.62
2022-09-17T01:03:56.386Z,10.51
2022-09-17T01:06:43.411Z,10.46
2022-09-17T01:09:30.335Z,10.38
2022-09-17T01:12:27.663Z,10.45
2022-09-17T01:15:07.267Z,10.47
2022-09-17T01:18:18.423Z,10.45
2022-09-17T01:21:22.704Z,10.39
2022-09-17T01:23:53.762Z,10.39
2022-09-17T01:26:44.842Z,10.44
2022-09-17T01:35:43.365Z,10.56
2022-09-17T01:38:32.584Z,10.46
2022-09-17T01:41:21.127Z,10.33
2022-09-17T01:44:08.134Z,10.32
2022-09-17T01:46:44.032Z,10.30
2022-09-17T01:49:11.635Z,10.36
2022-09-17T01:51:46.050Z,10.46
2022-09-17T01:54:18.260Z,10.45
2022-09-17T01:56:54.825Z,10.49
2022-09-17T01:59:25.556Z,10.41
2022-09-17T02:01:53.502Z,10.30
2022-09-17T02:04:24.547Z,10.34
2022-09-17T02:06:55.277Z,10.37
2022-09-17T02:09:25.016Z,10.38
2022-09-17T02:11:55.771Z,10.36
2022-09-17T02:14:30.108Z,10.33
2022-09-17T02:17:25.345Z,10.35
2022-09-17T02:19:53.794Z,10.24
2022-09-17T02:22:41.442Z,10.32
2022-09-17T02:25:19.729Z,10.37
2022-09-17T02:27:52.453Z,10.38
2022-09-17T02:30:19.450Z,10.40
2022-09-17T02:32:46.542Z,10.37
2022-09-17T02:35:14.996Z,10.33
2022-09-17T02:37:42.918Z,10.31
2022-09-17T02:40:11.913Z,10.35
2022-09-17T02:43:03.150Z,10.43
2022-09-17T02:46:07.653Z,10.39
2022-09-17T02:48:53.248Z,10.35
2022-09-17T02:51:45.467Z,10.46
2022-09-17T02:54:23.747Z,10.27
2022-09-17T02:57:18.469Z,10.21
2022-09-17T03:00:12.784Z,10.22
2022-09-17T03:02:47.473Z,10.15
2022-09-17T03:05:17.411Z,10.32
2022-09-17T03:07:46.067Z,10.20
2022-09-17T03:10:13.651Z,10.11
2022-09-17T03:12:41.183Z,10.19
2022-09-17T03:15:08.641Z,10.12
2022-09-17T03:17:35.416Z,10.03
2022-09-17T03:20:02.306Z,10.13
2022-09-17T03:22:29.158Z,10.16
2022-09-17T03:24:55.915Z,10.34
2022-09-17T03:27:22.684Z,10.33
2022-09-17T03:29:49.398Z,10.23
2022-09-17T03:32:16.196Z,10.21
2022-09-17T03:34:43.041Z,10.21
2022-09-17T03:37:09.757Z,10.10
2022-09-17T03:39:36.484Z,10.10
2022-09-17T03:42:03.276Z,10.12
2022-09-17T03:44:30.004Z,10.15
2022-09-17T03:46:56.898Z,10.22
2022-09-17T03:49:26.364Z,10.22
2022-09-17T03:51:53.076Z,10.28
2022-09-17T03:54:19.935Z,10.21
2022-09-17T03:56:46.639Z,10.28
2022-09-17T03:59:13.452Z,10.29
2022-09-17T04:01:40.347Z,10.22
2022-09-17T04:04:07.976Z,10.26
2022-09-17T04:06:34.939Z,10.22
2022-09-17T04:09:03.897Z,10.18
2022-09-17T04:11:30.757Z,10.28
2022-09-17T04:13:57.569Z,10.15
2022-09-17T04:16:24.462Z,10.15
2022-09-17T04:18:51.292Z,10.24
2022-09-17T04:21:17.981Z,10.28
2022-09-17T04:23:44.714Z,10.21
2022-09-17T04:26:11.487Z,10.30
2022-09-17T04:28:38.427Z,10.29
2022-09-17T04:31:05.253Z,10.24
2022-09-17T04:33:32.108Z,10.22
2022-09-17T04:35:58.877Z,10.26
2022-09-17T04:38:25.645Z,10.25
2022-09-17T04:40:57.433Z,10.37
2022-09-17T04:43:24.221Z,10.29
2022-09-17T04:45:50.924Z,10.29
2022-09-17T04:48:18.174Z,10.42
2022-09-17T04:50:44.922Z,10.43
2022-09-17T04:53:12.667Z,10.39
2022-09-17T04:55:39.617Z,10.46
2022-09-17T04:58:06.441Z,10.44
2022-09-17T05:00:33.221Z,10.48
2022-09-17T05:02:59.973Z,10.41
2022-09-17T05:05:26.938Z,10.47
2022-09-17T05:07:53.810Z,10.43
2022-09-17T05:10:22.050Z,10.38
2022-09-17T05:12:56.277Z,10.35
2022-09-17T05:15:24.314Z,10.29
2022-09-17T05:17:51.038Z,10.35
2022-09-17T05:20:17.943Z,10.41
2022-09-17T05:22:46.299Z,10.40
2022-09-17T05:25:14.805Z,10.37
2022-09-17T05:27:41.499Z,10.38
2022-09-17T05:30:09.582Z,10.41
2022-09-17T05:32:36.974Z,10.41
2022-09-17T05:35:05.713Z,10.34
2022-09-17T05:37:32.891Z,10.50
2022-09-17T05:39:59.823Z,10.52
2022-09-17T05:42:26.533Z,10.61
2022-09-17T05:44:53.209Z,10.64
2022-09-17T05:47:19.915Z,10.63
2022-09-17T05:49:46.555Z,10.56
2022-09-17T05:52:13.249Z,10.66
2022-09-17T05:54:39.927Z,10.65
2022-09-17T05:57:06.706Z,10.64
2022-09-17T05:59:33.651Z,10.60
2022-09-17T06:02:00.385Z,10.69
2022-09-17T06:04:29.588Z,10.70
2022-09-17T06:06:58.293Z,10.82
2022-09-17T06:09:25.149Z,10.74
2022-09-17T06:11:52.803Z,10.89
2022-09-17T06:14:19.532Z,10.78
2022-09-17T06:16:46.311Z,10.65
2022-09-17T06:19:13.205Z,10.58
2022-09-17T06:21:39.867Z,10.71
2022-09-17T06:24:09.487Z,10.67
2022-09-17T06:26:36.232Z,10.68
2022-09-17T06:29:03.013Z,10.95
2022-09-17T06:32:12.959Z,10.82
2022-09-17T06:38:00.524Z,10.95
2022-09-17T06:40:58.975Z,11.07
2022-09-17T06:43:41.342Z,11.14
2022-09-17T06:46:11.638Z,10.97
2022-09-17T06:48:50.092Z,11.15
2022-09-17T06:51:17.021Z,11.09
2022-09-17T06:53:43.785Z,11.16
2022-09-17T06:56:13.143Z,11.26
2022-09-17T06:58:42.128Z,11.16
2022-09-17T07:01:10.240Z,11.20
2022-09-17T07:03:38.283Z,11.22
2022-09-17T07:06:12.281Z,11.32
2022-09-17T07:08:47.667Z,11.28
2022-09-17T07:11:16.145Z,11.33
2022-09-17T07:13:42.956Z,11.45
2022-09-17T07:16:10.452Z,11.44
2022-09-17T07:18:50.259Z,11.42
2022-09-17T07:21:17.286Z,11.43
2022-09-17T07:23:44.870Z,11.30
2022-09-17T07:26:15.694Z,11.23
2022-09-17T07:28:43.797Z,11.30
2022-09-17T07:31:16.098Z,11.20
2022-09-17T07:33:43.505Z,11.15
2022-09-17T07:36:12.376Z,11.20
2022-09-17T07:38:39.786Z,11.18
2022-09-17T07:41:09.598Z,11.36
2022-09-17T07:43:36.675Z,11.35
2022-09-17T07:46:09.882Z,11.27
2022-09-17T07:48:38.458Z,11.14
2022-09-17T07:51:05.353Z,11.42
2022-09-17T07:53:33.194Z,11.38
2022-09-17T07:58:36.103Z,11.55
2022-09-17T08:01:13.834Z,11.44
2022-09-17T08:03:40.721Z,11.30
2022-09-17T08:06:38.882Z,11.39
2022-09-17T08:09:20.544Z,11.27
2022-09-17T08:11:56.108Z,11.37
2022-09-17T08:14:39.525Z,11.39
2022-09-17T08:17:41.938Z,11.44
2022-09-17T08:20:09.402Z,11.65
2022-09-17T08:22:37.415Z,11.61
2022-09-17T08:25:18.739Z,11.48
2022-09-17T08:28:50.438Z,11.45
2022-09-17T08:31:35.573Z,11.67
2022-09-17T08:34:12.398Z,11.59
2022-09-17T08:36:51.973Z,11.62
2022-09-17T08:39:33.482Z,11.69
2022-09-17T08:42:25.736Z,11.75
2022-09-17T08:45:00.555Z,11.87
2022-09-17T08:47:39.138Z,11.99
2022-09-17T08:50:40.424Z,12.11
2022-09-17T08:53:15.537Z,12.01
2022-09-17T08:55:46.844Z,12.25
2022-09-17T08:58:38.197Z,12.13
2022-09-17T09:01:26.919Z,12.17
2022-09-17T09:03:59.820Z,12.25
2022-09-17T09:06:50.074Z,12.29
2022-09-17T09:09:23.676Z,12.24
2022-09-17T09:12:31.685Z,12.23
2022-09-17T09:15:15.135Z,12.30
2022-09-17T09:17:49.662Z,12.29
2022-09-17T09:20:41.162Z,12.20
2022-09-17T09:23:44.038Z,12.41
2022-09-17T09:26:18.318Z,12.28
2022-09-17T09:29:03.740Z,12.45
2022-09-17T09:31:46.451Z,12.64
2022-09-17T09:34:33.690Z,12.74
2022-09-17T09:37:33.741Z,12.70
2022-09-17T09:40:20.302Z,12.63
2022-09-17T09:42:51.151Z,12.78
2022-09-17T09:45:28.506Z,12.51
2022-09-17T09:48:41.081Z,12.43
2022-09-17T09:51:27.935Z,12.65
2022-09-17T09:54:13.401Z,12.95
2022-09-17T09:56:59.284Z,12.96
2022-09-17T09:59:32.035Z,12.93
2022-09-17T10:02:05.085Z,12.82
2022-09-17T10:04:53.357Z,12.79
2022-09-17T10:07:29.791Z,12.82
2022-09-17T10:10:13.179Z,12.82
2022-09-17T10:12:40.338Z,13.07
2022-09-17T10:15:58.274Z,12.98
2022-09-17T10:18:26.230Z,12.57
2022-09-17T10:21:11.788Z,12.00
2022-09-17T10:23:53.303Z,11.89
2022-09-17T10:26:31.537Z,12.04
2022-09-17T10:29:04.368Z,12.08
2022-09-17T10:32:00.731Z,12.16
2022-09-17T10:35:26.160Z,12.45
2022-09-17T10:37:53.870Z,12.54
2022-09-17T10:40:20.725Z,12.76
2022-09-17T10:42:51.729Z,13.08
2022-09-17T10:45:29.785Z,13.10
2022-09-17T10:48:00.086Z,13.22
2022-09-17T10:50:32.019Z,13.13
2022-09-17T10:53:04.918Z,13.15
2022-09-17T10:55:38.043Z,12.93
2022-09-17T10:58:10.276Z,12.75
2022-09-17T11:00:40.067Z,12.58
2022-09-17T11:03:23.019Z,12.65
2022-09-17T11:06:21.185Z,12.74
2022-09-17T11:09:09.839Z,12.65
2022-09-17T11:11:57.506Z,12.84
2022-09-17T11:14:46.790Z,12.82
2022-09-17T11:17:46.959Z,12.80
2022-09-17T11:21:09.451Z,13.08
2022-09-17T11:23:52.714Z,13.54
2022-09-17T11:26:31.815Z,13.41
2022-09-17T11:29:17.401Z,13.68
2022-09-17T11:31:55.320Z,13.41
2022-09-17T11:34:22.257Z,13.20
2022-09-17T11:37:06.195Z,13.35
2022-09-17T11:39:47.697Z,13.07
2022-09-17T11:43:07.515Z,13.10
2022-09-17T11:45:39.732Z,13.18
2022-09-17T11:48:42.461Z,13.33
2022-09-17T11:51:20.164Z,13.77
2022-09-17T11:53:51.783Z,13.75
2022-09-17T11:56:50.330Z,13.64
2022-09-17T11:59:31.069Z,13.27
2022-09-17T12:02:34.976Z,12.88
2022-09-17T12:05:22.402Z,12.81
2022-09-17T12:07:59.846Z,13.04
2022-09-17T12:10:35.137Z,13.32
2022-09-17T12:13:30.035Z,13.49
2022-09-17T12:16:35.224Z,13.57
2022-09-17T12:19:36.986Z,13.82
2022-09-17T12:22:35.022Z,14.33
2022-09-17T12:25:04.454Z,14.52
2022-09-17T12:27:52.947Z,14.54
2022-09-17T12:30:26.727Z,14.71
2022-09-17T12:32:59.310Z,14.71
2022-09-17T12:36:05.512Z,14.50
2022-09-17T12:39:07.281Z,13.72
2022-09-17T12:42:23.840Z,13.34
2022-09-17T12:45:51.010Z,13.22
2022-09-17T12:48:53.468Z,13.38
2022-09-17T12:52:01.772Z,13.54
2022-09-17T12:54:50.281Z,13.92
2022-09-17T12:57:31.283Z,14.05
2022-09-17T13:00:08.191Z,14.25
2022-09-17T13:02:43.066Z,14.23
2022-09-17T13:05:57.607Z,13.87
2022-09-17T13:08:53.001Z,13.81
2022-09-17T13:11:38.401Z,14.31
2022-09-17T13:14:24.489Z,14.46
2022-09-17T13:17:05.390Z,14.51
2022-09-17T13:20:04.694Z,15.04
2022-09-17T13:22:34.172Z,14.93
2022-09-17T13:25:14.589Z,15.09
2022-09-17T13:27:41.542Z,14.59
2022-09-17T13:30:11.101Z,14.39
2022-09-17T13:32:41.345Z,14.46
2022-09-17T13:35:16.999Z,14.56
2022-09-17T13:37:53.275Z,14.13
2022-09-17T13:40:27.832Z,14.34
2022-09-17T13:42:57.123Z,14.08
2022-09-17T13:45:25.874Z,13.95
2022-09-17T13:47:55.176Z,13.78
2022-09-17T13:50:28.075Z,14.07
2022-09-17T13:52:57.393Z,14.51
2022-09-17T13:55:34.745Z,15.17
2022-09-17T13:58:08.707Z,15.25
2022-09-17T14:00:52.964Z,15.04
2022-09-17T14:03:29.192Z,15.30
2022-09-17T14:05:56.552Z,15.67
2022-09-17T14:08:28.738Z,15.28
2022-09-17T14:10:57.428Z,14.83
2022-09-17T14:13:36.378Z,14.72
2022-09-17T14:16:03.393Z,14.76
2022-09-17T14:18:35.411Z,14.55
2022-09-17T14:21:05.856Z,14.59
2022-09-17T14:23:46.833Z,14.53
2022-09-17T14:26:29.000Z,14.82
2022-09-17T14:29:43.781Z,14.78
2022-09-17T14:32:16.609Z,14.83
2022-09-17T14:34:43.482Z,14.61
2022-09-17T14:37:14.453Z,14.38
2022-09-17T14:39:41.436Z,14.15
2022-09-17T14:42:15.736Z,14.06
2022-09-17T14:44:55.003Z,13.95
2022-09-17T14:47:22.758Z,14.44
2022-09-17T14:49:50.900Z,14.61
2022-09-17T14:52:30.529Z,14.87
2022-09-17T14:55:17.626Z,14.57
2022-09-17T14:57:47.281Z,14.71
2022-09-17T15:00:21.731Z,14.94
2022-09-17T15:02:55.730Z,15.42
2022-09-17T15:05:33.338Z,16.28
2022-09-17T15:08:19.204Z,17.23
2022-09-17T15:10:57.043Z,17.54
2022-09-17T15:13:48.352Z,17.08
2022-09-17T15:16:30.724Z,15.61
2022-09-17T15:18:59.798Z,14.62
2022-09-17T15:21:49.409Z,13.48
2022-09-17T15:24:21.671Z,13.24
2022-09-17T15:27:09.495Z,13.00
2022-09-17T15:29:43.140Z,12.92
2022-09-17T15:32:12.701Z,13.41
2022-09-17T15:35:14.316Z,13.67
2022-09-17T15:38:23.668Z,14.04
2022-09-17T15:44:31.788Z,13.17
2022-09-17T15:48:16.564Z,13.57
2022-09-17T15:50:52.462Z,12.98
2022-09-17T15:53:24.689Z,12.70
2022-09-17T15:56:23.534Z,12.94
2022-09-17T15:59:28.941Z,13.34
2022-09-17T16:02:03.888Z,13.28
2022-09-17T16:04:35.818Z,13.33
2022-09-17T16:07:13.627Z,13.17
2022-09-17T16:09:50.827Z,13.23
2022-09-17T16:15:11.408Z,12.65
2022-09-17T16:17:50.119Z,12.57
2022-09-17T16:20:25.462Z,12.38
2022-09-17T16:22:53.577Z,12.28
2022-09-17T16:25:24.650Z,11.80
2022-09-17T16:27:56.143Z,11.72
2022-09-17T16:30:23.865Z,11.50
2022-09-17T16:32:51.222Z,11.47
2022-09-17T16:35:20.244Z,11.23
2022-09-17T16:37:51.625Z,11.41
2022-09-17T16:40:19.974Z,11.39
2022-09-17T16:42:47.345Z,11.20
2022-09-17T16:45:14.675Z,11.14
2022-09-17T16:47:49.752Z,10.97
2022-09-17T16:50:22.431Z,10.80
2022-09-17T16:52:54.690Z,10.76
2022-09-17T16:55:22.090Z,10.88
2022-09-17T16:57:49.208Z,10.81
2022-09-17T17:00:19.616Z,10.86
2022-09-17T17:02:53.075Z,10.83
2022-09-17T17:05:22.906Z,10.68
2022-09-17T17:07:50.185Z,10.61
2022-09-17T17:10:17.581Z,10.63
2022-09-17T17:15:48.395Z,10.77
2022-09-17T17:18:22.776Z,10.64
2022-09-17T17:20:49.630Z,10.46
2022-09-17T17:23:17.010Z,10.39
2022-09-17T17:25:43.824Z,10.45
2022-09-17T17:28:11.240Z,10.38
2022-09-17T17:30:38.704Z,10.45
2022-09-17T17:33:05.730Z,10.39
2022-09-17T17:35:32.791Z,10.37
2022-09-17T17:37:59.642Z,10.49
2022-09-17T17:40:27.065Z,10.45
2022-09-17T17:42:54.667Z,10.35
2022-09-17T17:45:21.715Z,10.37
2022-09-17T17:47:48.841Z,10.33
2022-09-17T17:50:28.684Z,10.13
2022-09-17T17:53:02.799Z,10.13
2022-09-17T17:55:29.725Z,10.06
2022-09-17T17:58:01.194Z,10.14
2022-09-17T18:00:29.027Z,10.18
2022-09-17T18:02:55.777Z,10.08
2022-09-17T18:05:22.575Z,10.12
2022-09-17T18:07:55.198Z,10.20
2022-09-17T18:10:29.713Z,10.34
2022-09-17T18:12:56.602Z,10.18
2022-09-17T18:15:23.531Z,10.43
2022-09-17T18:17:52.695Z,10.26
2022-09-17T18:20:26.277Z,10.27
2022-09-17T18:22:56.080Z,10.27
2022-09-17T18:25:33.700Z,10.12
2022-09-17T18:28:03.739Z,10.14
2022-09-17T18:30:32.351Z,10.05
2022-09-17T18:33:12.078Z,10.17
2022-09-17T18:36:01.213Z,10.12
2022-09-17T18:38:35.904Z,10.08
2022-09-17T18:41:06.020Z,10.22
2022-09-17T18:43:36.293Z,10.24
2022-09-17T18:46:04.222Z,10.28
2022-09-17T18:48:36.168Z,10.19
2022-09-17T18:51:08.871Z,10.15
2022-09-17T18:53:37.051Z,10.32
2022-09-17T18:56:07.378Z,10.27
2022-09-17T18:58:36.191Z,10.23
2022-09-17T19:01:08.246Z,9.94
2022-09-17T19:03:38.232Z,9.90
2022-09-17T19:09:20.685Z,9.76
2022-09-17T19:11:47.407Z,9.70
2022-09-17T19:14:14.166Z,9.48
2022-09-17T19:16:40.945Z,9.41
2022-09-17T19:19:07.659Z,9.58
2022-09-17T19:21:35.387Z,9.70
2022-09-17T19:24:03.586Z,9.54
2022-09-17T19:26:30.518Z,9.65
2022-09-17T19:28:58.703Z,9.51
2022-09-17T19:31:26.129Z,9.65
2022-09-17T19:33:53.339Z,9.63
2022-09-17T19:36:23.317Z,9.60
2022-09-17T19:38:50.191Z,9.57
2022-09-17T19:41:19.027Z,9.60
2022-09-17T19:43:46.320Z,9.58
2022-09-17T19:46:15.845Z,9.45
2022-09-17T19:48:46.629Z,9.60
2022-09-17T19:51:14.295Z,9.69
2022-09-17T19:53:41.548Z,9.84
2022-09-17T19:56:11.386Z,9.94
2022-09-17T19:58:38.178Z,9.89
2022-09-17T20:01:05.233Z,9.88
2022-09-17T20:03:32.044Z,9.70
2022-09-17T20:06:07.339Z,9.62
2022-09-17T20:08:38.073Z,9.72
2022-09-17T20:11:09.614Z,9.70
2022-09-17T20:13:36.834Z,9.65
2022-09-17T20:16:19.002Z,9.73
2022-09-17T20:18:46.021Z,9.49
2022-09-17T20:21:19.166Z,9.35
2022-09-17T20:23:46.126Z,9.25
2022-09-17T20:26:14.580Z,9.31
2022-09-17T20:28:44.533Z,9.13
2022-09-17T20:31:14.061Z,9.28
2022-09-17T20:33:41.615Z,9.16
2022-09-17T20:36:12.471Z,9.14
2022-09-17T20:41:27.851Z,9.07
2022-09-17T20:43:54.772Z,9.23
2022-09-17T20:46:29.014Z,9.36
2022-09-17T20:49:05.639Z,9.30
2022-09-17T20:51:35.220Z,9.28
2022-09-17T20:54:02.492Z,9.33
2022-09-17T20:56:33.399Z,9.35
2022-09-17T20:59:13.529Z,9.39
2022-09-17T21:01:45.100Z,9.43
2022-09-17T21:04:14.986Z,9.32
2022-09-17T21:06:42.937Z,9.23
2022-09-17T21:09:16.045Z,9.13
2022-09-17T21:11:44.041Z,9.17
2022-09-17T21:14:11.985Z,9.13
2022-09-17T21:16:39.451Z,9.18
2022-09-17T21:19:08.014Z,9.14
2022-09-17T21:21:35.182Z,9.30
2022-09-17T21:24:04.082Z,9.42
2022-09-17T21:26:31.233Z,9.41
2022-09-17T21:29:01.633Z,9.32
2022-09-17T21:31:32.635Z,9.10
2022-09-17T21:34:03.768Z,8.93
2022-09-17T21:36:34.978Z,8.95
2022-09-17T21:39:05.972Z,9.07
2022-09-17T21:41:33.232Z,9.18
2022-09-17T21:44:00.368Z,9.18
2022-09-17T21:46:34.150Z,9.17
2022-09-17T21:49:04.584Z,9.14
2022-09-17T21:51:39.312Z,9.14
2022-09-17T21:54:08.854Z,9.30
2022-09-17T21:56:36.077Z,9.25
2022-09-17T21:59:06.000Z,9.18
2022-09-17T22:01:40.249Z,9.21
2022-09-17T22:04:09.655Z,9.37
2022-09-17T22:06:37.257Z,9.39
2022-09-17T22:09:06.567Z,9.37
2022-09-17T22:11:36.098Z,9.41
2022-09-17T22:14:09.234Z,9.45
2022-09-17T22:16:41.682Z,9.43
2022-09-17T22:19:10.076Z,9.30
2022-09-17T22:21:39.819Z,9.32
2022-09-17T22:24:07.316Z,9.41
2022-09-17T22:26:36.694Z,9.53
2022-09-17T22:29:06.059Z,9.38
2022-09-17T22:31:33.860Z,9.39
2022-09-17T22:34:01.110Z,9.46
2022-09-17T22:36:28.694Z,9.40
2022-09-17T22:38:57.466Z,9.36
2022-09-17T22:41:29.134Z,9.51
2022-09-17T22:43:58.193Z,9.44
2022-09-17T22:46:27.430Z,9.42
2022-09-17T22:48:55.187Z,9.44
2022-09-17T22:51:22.665Z,9.37
2022-09-17T22:53:49.678Z,9.42
2022-09-17T22:56:18.771Z,9.56
2022-09-17T22:58:46.357Z,9.65
2022-09-17T23:01:21.998Z,9.55
2022-09-17T23:03:51.419Z,9.45
2022-09-17T23:06:21.559Z,9.45
2022-09-17T23:08:48.767Z,9.41
2022-09-17T23:11:20.247Z,9.42
2022-09-17T23:13:48.040Z,9.33
2022-09-17T23:16:15.362Z,9.24
2022-09-17T23:18:42.490Z,9.28
2022-09-17T23:21:14.898Z,9.33
2022-09-17T23:23:43.373Z,9.28
2022-09-17T23:26:13.333Z,9.25
2022-09-17T23:28:40.690Z,9.35
2022-09-17T23:31:11.774Z,9.31
2022-09-17T23:33:39.043Z,9.66
2022-09-17T23:36:13.061Z,9.59
2022-09-17T23:38:43.963Z,9.67
2022-09-17T23:41:12.663Z,9.61
2022-09-17T23:43:39.495Z,9.61
2022-09-17T23:46:06.391Z,9.63
2022-09-17T23:48:33.622Z,9.74
2022-09-17T23:51:00.860Z,9.75
2022-09-17T23:53:30.179Z,9.56
2022-09-17T23:55:57.073Z,9.54
2022-09-17T23:58:23.963Z,9.54
